createdAt,value
2019-05-30T00:01:34.877Z,1.37
2019-05-30T00:04:03.290Z,1.30
2019-05-30T00:06:31.691Z,2.00
2019-05-30T00:09:00.422Z,1.27
2019-05-30T00:11:27.976Z,1.47
2019-05-30T00:13:56.634Z,1.23
2019-05-30T00:16:24.271Z,1.90
2019-05-30T00:18:51.640Z,1.90
2019-05-30T00:21:19.184Z,1.53
2019-05-30T00:23:46.636Z,1.40
2019-05-30T00:26:14.003Z,1.43
2019-05-30T00:28:41.461Z,1.60
2019-05-30T00:31:08.915Z,1.30
2019-05-30T00:33:36.326Z,1.50
2019-05-30T00:36:03.990Z,1.60
2019-05-30T00:38:31.425Z,1.27
2019-05-30T00:41:00.005Z,1.30
2019-05-30T00:43:27.668Z,1.50
2019-05-30T00:45:55.897Z,1.63
2019-05-30T00:48:23.520Z,1.60
2019-05-30T00:50:50.979Z,1.67
2019-05-30T00:53:18.461Z,2.03
2019-05-30T00:55:46.412Z,1.70
2019-05-30T00:58:13.851Z,1.33
2019-05-30T01:00:43.827Z,1.63
2019-05-30T01:03:10.729Z,1.60
2019-05-30T01:05:38.406Z,1.57
2019-05-30T01:08:07.114Z,1.63
2019-05-30T01:10:34.773Z,1.47
2019-05-30T01:13:03.128Z,1.83
2019-05-30T01:15:30.834Z,1.33
2019-05-30T01:17:59.058Z,1.27
2019-05-30T01:20:26.683Z,2.10
2019-05-30T01:22:54.138Z,1.90
2019-05-30T01:25:21.633Z,1.70
2019-05-30T01:27:49.059Z,1.63
2019-05-30T01:30:16.690Z,2.03
2019-05-30T01:32:44.058Z,1.80
2019-05-30T01:35:12.093Z,1.33
2019-05-30T01:37:39.654Z,1.87
2019-05-30T01:40:08.727Z,1.90
2019-05-30T01:42:36.788Z,2.00
2019-05-30T01:45:06.260Z,1.80
2019-05-30T01:47:33.752Z,1.90
2019-05-30T01:50:02.484Z,1.97
2019-05-30T01:52:30.039Z,1.30
2019-05-30T01:54:58.508Z,1.93
2019-05-30T01:57:26.858Z,1.57
2019-05-30T01:59:54.280Z,1.83
2019-05-30T02:02:21.699Z,1.70
2019-05-30T02:04:49.124Z,1.70
2019-05-30T02:07:16.569Z,1.47
2019-05-30T02:09:44.067Z,1.70
2019-05-30T02:12:11.563Z,1.53
2019-05-30T02:14:39.018Z,1.80
2019-05-30T02:17:07.746Z,1.90
2019-05-30T02:19:36.614Z,1.80
2019-05-30T02:22:04.112Z,1.47
2019-05-30T02:24:31.549Z,2.00
2019-05-30T02:27:00.043Z,1.50
2019-05-30T02:29:27.639Z,1.60
2019-05-30T02:31:55.059Z,1.70
2019-05-30T02:34:22.527Z,1.87
2019-05-30T02:36:50.065Z,1.67
2019-05-30T02:39:17.495Z,1.70
2019-05-30T02:41:44.882Z,1.60
2019-05-30T02:44:12.690Z,1.87
2019-05-30T02:46:40.119Z,2.17
2019-05-30T02:49:09.598Z,2.03
2019-05-30T02:51:36.962Z,1.70
2019-05-30T02:54:06.411Z,1.40
2019-05-30T02:56:33.755Z,1.83
2019-05-30T02:59:01.549Z,1.43
2019-05-30T03:01:29.824Z,1.60
2019-05-30T03:03:57.221Z,1.50
2019-05-30T03:06:24.662Z,1.50
2019-05-30T03:08:52.189Z,1.70
2019-05-30T03:11:19.709Z,1.90
2019-05-30T03:13:47.165Z,1.50
2019-05-30T03:16:14.609Z,1.80
2019-05-30T03:18:42.081Z,1.57
2019-05-30T03:21:12.384Z,1.73
2019-05-30T03:23:39.171Z,1.53
2019-05-30T03:26:09.243Z,1.20
2019-05-30T03:28:36.110Z,1.60
2019-05-30T03:31:14.016Z,1.93
2019-05-30T03:33:41.072Z,2.20
2019-05-30T03:36:10.862Z,2.20
2019-05-30T03:38:34.326Z,1.70
2019-05-30T03:41:01.917Z,2.10
2019-05-30T03:43:29.335Z,2.37
2019-05-30T03:45:57.236Z,2.53
2019-05-30T03:48:27.116Z,2.07
2019-05-30T03:50:57.074Z,2.27
2019-05-30T03:53:24.527Z,2.37
2019-05-30T03:55:58.242Z,2.10
2019-05-30T03:58:36.370Z,2.23
2019-05-30T04:01:08.766Z,2.30
2019-05-30T04:03:43.677Z,2.30
2019-05-30T04:06:24.420Z,1.70
2019-05-30T04:08:56.830Z,2.20
2019-05-30T04:11:33.489Z,2.20
2019-05-30T04:14:04.570Z,2.83
2019-05-30T04:16:33.348Z,2.07
2019-05-30T04:19:01.167Z,2.90
2019-05-30T04:21:28.618Z,3.17
2019-05-30T04:23:56.018Z,2.63
2019-05-30T04:26:23.436Z,3.13
2019-05-30T04:28:50.894Z,2.33
2019-05-30T04:31:19.450Z,2.67
2019-05-30T04:33:47.211Z,2.40
2019-05-30T04:36:14.811Z,2.00
2019-05-30T04:38:43.000Z,1.67
2019-05-30T04:41:13.273Z,1.80
2019-05-30T04:43:40.683Z,1.93
2019-05-30T04:46:10.079Z,1.03
2019-05-30T04:48:37.573Z,1.37
2019-05-30T04:51:05.144Z,1.40
2019-05-30T04:53:32.535Z,1.83
2019-05-30T04:56:00.074Z,1.90
2019-05-30T04:58:27.540Z,2.43
2019-05-30T05:00:54.913Z,2.27
2019-05-30T05:03:41.825Z,2.43
2019-05-30T05:05:51.732Z,2.10
2019-05-30T05:08:19.944Z,1.87
2019-05-30T05:10:47.633Z,2.17
2019-05-30T05:13:16.287Z,2.03
2019-05-30T05:15:43.849Z,2.30
2019-05-30T05:18:12.878Z,2.37
2019-05-30T05:20:40.532Z,1.70
2019-05-30T05:23:07.977Z,2.30
2019-05-30T05:25:35.390Z,4.00
2019-05-30T05:28:02.969Z,1.97
2019-05-30T05:30:30.417Z,2.27
2019-05-30T05:32:57.910Z,1.60
2019-05-30T05:35:25.384Z,1.47
2019-05-30T05:37:52.775Z,1.80
2019-05-30T05:40:20.361Z,1.83
2019-05-30T05:42:47.839Z,1.40
2019-05-30T05:45:16.252Z,1.43
2019-05-30T05:47:43.787Z,1.80
2019-05-30T05:50:11.973Z,1.93
2019-05-30T05:52:39.563Z,1.60
2019-05-30T05:55:07.147Z,1.80
2019-05-30T05:57:35.141Z,1.73
2019-05-30T06:00:02.922Z,1.73
2019-05-30T06:02:30.320Z,1.20
2019-05-30T06:04:57.794Z,1.20
2019-05-30T06:07:25.290Z,1.03
2019-05-30T06:09:52.768Z,1.20
2019-05-30T06:12:20.197Z,1.40
2019-05-30T06:14:47.672Z,1.60
2019-05-30T06:17:15.128Z,1.20
2019-05-30T06:19:46.460Z,1.40
2019-05-30T06:22:11.895Z,1.77
2019-05-30T06:24:39.449Z,1.40
2019-05-30T06:27:06.971Z,2.03
2019-05-30T06:29:34.361Z,1.33
2019-05-30T06:32:01.846Z,1.27
2019-05-30T06:34:38.939Z,1.03
2019-05-30T06:36:58.617Z,1.50
2019-05-30T06:39:26.041Z,1.60
2019-05-30T06:41:53.510Z,1.67
2019-05-30T06:44:21.852Z,1.60
2019-05-30T06:46:49.338Z,1.30
2019-05-30T06:49:16.799Z,1.30
2019-05-30T06:51:44.368Z,1.40
2019-05-30T06:54:11.787Z,1.53
2019-05-30T06:56:39.241Z,1.40
2019-05-30T06:59:06.830Z,1.70
2019-05-30T07:01:34.313Z,1.47
2019-05-30T07:04:02.077Z,1.50
2019-05-30T07:06:31.289Z,1.00
2019-05-30T07:08:59.889Z,0.80
2019-05-30T07:11:27.483Z,1.20
2019-05-30T07:14:14.321Z,1.33
2019-05-30T07:16:41.876Z,1.63
2019-05-30T07:19:09.274Z,1.53
2019-05-30T07:21:36.703Z,1.53
2019-05-30T07:24:04.530Z,1.57
2019-05-30T07:26:31.994Z,1.40
2019-05-30T07:29:00.724Z,1.53
2019-05-30T07:31:28.394Z,1.47
2019-05-30T07:33:55.891Z,2.30
2019-05-30T07:36:24.100Z,1.70
2019-05-30T07:38:51.672Z,1.30
2019-05-30T07:41:19.024Z,2.33
2019-05-30T07:43:46.445Z,1.40
2019-05-30T07:46:13.858Z,1.60
2019-05-30T07:48:41.316Z,2.37
2019-05-30T07:51:08.740Z,1.70
2019-05-30T07:53:36.260Z,1.30
2019-05-30T07:56:04.096Z,1.73
2019-05-30T07:58:31.528Z,1.70
2019-05-30T08:00:58.972Z,1.93
2019-05-30T08:03:26.528Z,1.70
2019-05-30T08:05:53.965Z,1.30
2019-05-30T08:08:21.393Z,1.20
2019-05-30T08:10:48.859Z,2.20
2019-05-30T08:13:16.363Z,1.40
2019-05-30T08:15:44.313Z,1.90
2019-05-30T08:18:12.090Z,1.93
2019-05-30T08:20:39.521Z,1.80
2019-05-30T08:23:09.840Z,2.27
2019-05-30T08:25:36.630Z,1.93
2019-05-30T08:28:04.319Z,1.73
2019-05-30T08:30:32.373Z,1.60
2019-05-30T08:32:59.895Z,1.70
2019-05-30T08:35:39.338Z,1.37
2019-05-30T08:37:56.635Z,1.47
2019-05-30T08:40:24.054Z,1.43
2019-05-30T08:42:51.472Z,1.43
2019-05-30T08:45:19.306Z,1.83
2019-05-30T08:47:46.686Z,1.90
2019-05-30T08:50:14.605Z,1.60
2019-05-30T08:52:42.061Z,1.40
2019-05-30T08:55:09.702Z,1.53
2019-05-30T08:57:38.572Z,2.10
2019-05-30T09:00:07.181Z,1.63
2019-05-30T09:02:34.567Z,1.53
2019-05-30T09:05:06.569Z,1.60
2019-05-30T09:07:31.889Z,1.23
2019-05-30T09:09:59.382Z,1.80
2019-05-30T09:12:26.815Z,2.60
2019-05-30T09:14:54.237Z,2.23
2019-05-30T09:17:21.712Z,2.20
2019-05-30T09:19:49.185Z,2.07
2019-05-30T09:22:16.653Z,1.70
2019-05-30T09:24:44.175Z,1.50
2019-05-30T09:27:11.612Z,2.27
2019-05-30T09:29:39.685Z,1.67
2019-05-30T09:32:08.295Z,1.27
2019-05-30T09:34:35.760Z,1.30
2019-05-30T09:37:03.100Z,1.63
2019-05-30T09:39:30.517Z,1.33
2019-05-30T09:41:57.955Z,1.20
2019-05-30T09:44:25.379Z,1.10
2019-05-30T09:46:52.881Z,1.40
2019-05-30T09:49:20.300Z,1.40
2019-05-30T09:51:48.911Z,1.20
2019-05-30T09:54:16.435Z,1.10
2019-05-30T09:56:44.928Z,1.10
2019-05-30T09:59:12.542Z,1.80
2019-05-30T10:01:39.962Z,1.63
2019-05-30T10:04:07.344Z,1.53
2019-05-30T10:06:34.824Z,1.63
2019-05-30T10:09:02.468Z,1.80
2019-05-30T10:11:29.952Z,2.73
2019-05-30T10:13:57.365Z,1.70
2019-05-30T10:16:24.774Z,1.80
2019-05-30T10:18:52.856Z,1.80
2019-05-30T10:21:20.584Z,1.70
2019-05-30T10:23:49.424Z,2.43
2019-05-30T10:26:17.047Z,1.70
2019-05-30T10:28:45.009Z,1.43
2019-05-30T10:31:13.493Z,2.20
2019-05-30T10:33:40.837Z,2.13
2019-05-30T10:36:08.242Z,2.40
2019-05-30T10:38:35.654Z,1.60
2019-05-30T10:41:03.109Z,2.27
2019-05-30T10:43:30.529Z,2.20
2019-05-30T10:45:58.001Z,2.20
2019-05-30T10:48:25.368Z,2.73
2019-05-30T10:50:52.760Z,2.27
2019-05-30T10:53:20.199Z,2.37
2019-05-30T10:55:48.185Z,1.30
2019-05-30T10:58:15.691Z,1.30
2019-05-30T11:00:48.542Z,1.17
2019-05-30T11:03:15.390Z,1.27
2019-05-30T11:05:47.638Z,1.27
2019-05-30T11:08:20.755Z,1.23
2019-05-30T11:10:48.531Z,1.30
2019-05-30T11:13:17.269Z,1.07
2019-05-30T11:15:44.803Z,1.33
2019-05-30T11:18:12.786Z,1.43
2019-05-30T11:20:40.437Z,1.73
2019-05-30T11:23:08.109Z,1.30
2019-05-30T11:25:35.806Z,4.90
2019-05-30T11:28:04.099Z,1.33
2019-05-30T11:30:31.730Z,2.23
2019-05-30T11:32:59.586Z,1.00
2019-05-30T11:35:27.130Z,1.20
2019-05-30T11:37:55.187Z,1.40
2019-05-30T11:40:22.944Z,1.10
2019-05-30T11:42:51.232Z,1.20
2019-05-30T11:45:19.044Z,1.20
2019-05-30T11:47:46.452Z,1.27
2019-05-30T11:50:14.106Z,1.40
2019-05-30T11:52:41.612Z,1.10
2019-05-30T11:55:10.363Z,1.13
2019-05-30T11:57:37.878Z,1.17
2019-05-30T12:00:05.774Z,1.30
2019-05-30T12:02:33.199Z,1.13
2019-05-30T12:05:00.861Z,1.40
2019-05-30T12:07:36.249Z,1.30
2019-05-30T12:09:58.902Z,1.50
2019-05-30T12:12:26.947Z,1.57
2019-05-30T12:14:55.244Z,1.70
2019-05-30T12:17:22.790Z,1.00
2019-05-30T12:19:51.389Z,1.43
2019-05-30T12:22:18.949Z,1.67
2019-05-30T12:24:46.510Z,1.50
2019-05-30T12:27:14.005Z,1.80
2019-05-30T12:29:41.378Z,1.50
2019-05-30T12:32:09.071Z,1.53
2019-05-30T12:34:36.491Z,1.27
2019-05-30T12:37:04.149Z,1.57
2019-05-30T12:39:31.679Z,1.17
2019-05-30T12:41:59.118Z,1.20
2019-05-30T12:44:26.485Z,1.50
2019-05-30T12:46:55.459Z,1.33
2019-05-30T12:49:23.094Z,1.20
2019-05-30T12:51:50.579Z,1.27
2019-05-30T12:54:17.935Z,1.20
2019-05-30T12:56:45.328Z,1.63
2019-05-30T12:59:12.738Z,1.30
2019-05-30T13:01:40.107Z,1.33
2019-05-30T13:04:07.515Z,1.50
2019-05-30T13:06:34.934Z,1.27
2019-05-30T13:09:03.360Z,1.50
2019-05-30T13:11:30.944Z,1.47
2019-05-30T13:13:58.544Z,1.60
2019-05-30T13:16:26.021Z,1.50
2019-05-30T13:18:53.432Z,1.87
2019-05-30T13:21:21.169Z,2.27
2019-05-30T13:23:48.602Z,1.63
2019-05-30T13:26:16.102Z,1.73
2019-05-30T13:28:43.646Z,1.53
2019-05-30T13:31:11.084Z,1.53
2019-05-30T13:33:38.906Z,1.27
2019-05-30T13:36:07.232Z,1.60
2019-05-30T13:38:34.781Z,1.77
2019-05-30T13:41:03.515Z,1.70
2019-05-30T13:43:31.124Z,1.40
2019-05-30T13:45:58.606Z,1.67
2019-05-30T13:48:26.037Z,1.50
2019-05-30T13:50:53.475Z,1.43
2019-05-30T13:53:20.835Z,1.80
2019-05-30T13:55:48.390Z,1.70
2019-05-30T13:58:17.216Z,1.90
2019-05-30T14:00:44.599Z,1.53
2019-05-30T14:03:12.005Z,1.43
2019-05-30T14:05:39.433Z,1.83
2019-05-30T14:08:10.504Z,1.90
2019-05-30T14:10:36.112Z,1.70
2019-05-30T14:13:04.528Z,1.60
2019-05-30T14:15:32.105Z,1.50
2019-05-30T14:18:04.914Z,1.87
2019-05-30T14:20:32.536Z,1.80
2019-05-30T14:23:01.159Z,1.57
2019-05-30T14:25:28.846Z,2.10
2019-05-30T14:27:56.500Z,1.70
2019-05-30T14:30:24.881Z,1.73
2019-05-30T14:32:52.298Z,1.37
2019-05-30T14:35:19.931Z,1.73
2019-05-30T14:37:47.307Z,1.50
2019-05-30T14:40:15.514Z,2.17
2019-05-30T14:42:42.991Z,2.10
2019-05-30T14:45:12.543Z,2.97
2019-05-30T14:47:40.159Z,2.13
2019-05-30T14:50:11.091Z,1.50
2019-05-30T14:52:38.750Z,1.50
2019-05-30T14:55:07.233Z,1.60
2019-05-30T14:57:34.697Z,1.60
2019-05-30T15:00:02.083Z,1.90
2019-05-30T15:02:29.562Z,1.50
2019-05-30T15:04:56.975Z,1.50
2019-05-30T15:07:24.455Z,1.93
2019-05-30T15:09:51.820Z,2.77
2019-05-30T15:12:19.356Z,1.53
2019-05-30T15:14:46.809Z,1.40
2019-05-30T15:17:14.386Z,1.70
2019-05-30T15:19:41.889Z,1.70
2019-05-30T15:22:11.516Z,4.20
2019-05-30T15:24:38.905Z,6.80
2019-05-30T15:27:06.310Z,1.63
2019-05-30T15:29:33.899Z,1.80
2019-05-30T15:32:01.394Z,1.80
2019-05-30T15:34:28.802Z,1.50
2019-05-30T15:36:56.235Z,1.67
2019-05-30T15:39:32.474Z,1.70
2019-05-30T15:41:52.965Z,6.03
2019-05-30T15:44:20.442Z,1.80
2019-05-30T15:46:47.870Z,4.03
2019-05-30T15:49:16.364Z,8.17
2019-05-30T15:51:44.054Z,3.40
2019-05-30T15:54:11.507Z,1.77
2019-05-30T15:56:38.965Z,2.20
2019-05-30T15:59:06.327Z,2.03
2019-05-30T16:01:33.813Z,2.50
2019-05-30T16:04:01.339Z,1.97
2019-05-30T16:06:28.800Z,1.80
2019-05-30T16:08:56.233Z,2.90
2019-05-30T16:11:23.749Z,2.00
2019-05-30T16:13:51.195Z,1.87
2019-05-30T16:16:36.135Z,1.77
2019-05-30T16:18:48.510Z,2.17
2019-05-30T16:21:17.539Z,1.47
2019-05-30T16:23:45.485Z,2.00
2019-05-30T16:26:13.487Z,1.80
2019-05-30T16:28:41.453Z,13.03
2019-05-30T16:31:09.006Z,6.97
2019-05-30T16:33:36.546Z,2.03
2019-05-30T16:36:04.088Z,1.60
2019-05-30T16:38:31.481Z,2.40
2019-05-30T16:40:58.961Z,2.00
2019-05-30T16:43:26.663Z,5.30
2019-05-30T16:45:54.052Z,5.07
2019-05-30T16:48:22.523Z,6.80
2019-05-30T16:50:50.474Z,1.60
2019-05-30T16:53:19.083Z,4.27
2019-05-30T16:55:47.321Z,2.40
2019-05-30T16:58:15.470Z,2.20
2019-05-30T17:00:44.269Z,5.00
2019-05-30T17:03:11.758Z,1.90
2019-05-30T17:05:39.323Z,2.50
2019-05-30T17:08:06.724Z,5.80
2019-05-30T17:10:34.093Z,2.07
2019-05-30T17:13:01.519Z,1.87
2019-05-30T17:15:28.965Z,1.80
2019-05-30T17:17:56.475Z,3.70
2019-05-30T17:20:24.530Z,2.00
2019-05-30T17:22:52.052Z,2.20
2019-05-30T17:25:19.407Z,2.30
2019-05-30T17:27:46.829Z,2.67
2019-05-30T17:30:15.366Z,2.80
2019-05-30T17:32:43.699Z,2.13
2019-05-30T17:35:11.719Z,4.20
2019-05-30T17:37:39.173Z,4.17
2019-05-30T17:40:07.413Z,2.97
2019-05-30T17:42:34.806Z,3.30
2019-05-30T17:45:02.228Z,3.50
2019-05-30T17:47:29.662Z,5.10
2019-05-30T17:49:57.065Z,8.23
2019-05-30T17:52:25.589Z,8.70
2019-05-30T17:54:53.328Z,3.63
2019-05-30T17:57:21.955Z,5.63
2019-05-30T17:59:49.546Z,2.30
2019-05-30T18:02:16.968Z,7.87
2019-05-30T18:04:44.387Z,5.00
2019-05-30T18:07:11.823Z,2.13
2019-05-30T18:09:39.230Z,6.03
2019-05-30T18:12:06.762Z,2.70
2019-05-30T18:14:34.209Z,2.03
2019-05-30T18:17:01.614Z,2.00
2019-05-30T18:19:29.436Z,2.20
2019-05-30T18:21:56.861Z,2.70
2019-05-30T18:24:25.529Z,3.07
2019-05-30T18:26:53.122Z,2.83
2019-05-30T18:29:21.668Z,3.10
2019-05-30T18:31:49.208Z,2.67
2019-05-30T18:34:16.755Z,3.33
2019-05-30T18:36:44.421Z,2.20
2019-05-30T18:39:11.836Z,3.00
2019-05-30T18:41:39.219Z,2.60
2019-05-30T18:44:06.638Z,2.90
2019-05-30T18:46:34.050Z,2.00
2019-05-30T18:49:01.553Z,3.67
2019-05-30T18:51:29.009Z,2.40
2019-05-30T18:53:56.502Z,2.40
2019-05-30T18:56:24.563Z,2.43
2019-05-30T18:58:52.071Z,1.87
2019-05-30T19:01:19.456Z,2.27
2019-05-30T19:03:46.910Z,2.77
2019-05-30T19:06:14.745Z,2.10
2019-05-30T19:08:42.268Z,2.10
2019-05-30T19:11:09.647Z,1.83
2019-05-30T19:13:37.398Z,2.13
2019-05-30T19:16:04.926Z,2.37
2019-05-30T19:18:33.603Z,2.47
2019-05-30T19:21:01.190Z,2.20
2019-05-30T19:23:28.619Z,1.70
2019-05-30T19:25:57.363Z,2.47
2019-05-30T19:28:24.760Z,2.10
2019-05-30T19:30:52.186Z,1.87
2019-05-30T19:33:20.728Z,2.10
2019-05-30T19:35:49.695Z,2.20
2019-05-30T19:38:17.468Z,2.10
2019-05-30T19:40:44.937Z,1.83
2019-05-30T19:43:12.381Z,2.13
2019-05-30T19:45:39.829Z,1.87
2019-05-30T19:48:07.337Z,1.70
2019-05-30T19:50:34.798Z,2.10
2019-05-30T19:53:02.290Z,2.10
2019-05-30T19:55:30.995Z,2.07
2019-05-30T19:57:58.727Z,2.10
2019-05-30T20:00:26.835Z,2.20
2019-05-30T20:02:54.278Z,1.60
2019-05-30T20:05:21.734Z,2.13
2019-05-30T20:07:49.212Z,2.00
2019-05-30T20:10:16.842Z,2.20
2019-05-30T20:12:44.240Z,1.80
2019-05-30T20:15:12.534Z,2.00
2019-05-30T20:17:40.093Z,2.07
2019-05-30T20:20:08.991Z,2.27
2019-05-30T20:22:36.357Z,1.97
2019-05-30T20:25:04.562Z,2.00
2019-05-30T20:27:32.607Z,1.53
2019-05-30T20:30:00.033Z,2.00
2019-05-30T20:32:27.482Z,2.00
2019-05-30T20:34:55.926Z,2.03
2019-05-30T20:37:23.414Z,2.23
2019-05-30T20:39:50.765Z,2.00
2019-05-30T20:42:19.704Z,2.20
2019-05-30T20:44:47.410Z,2.00
2019-05-30T20:47:14.998Z,2.23
2019-05-30T20:49:43.413Z,2.20
2019-05-30T20:52:10.981Z,2.50
2019-05-30T20:54:39.268Z,2.40
2019-05-30T20:57:06.875Z,2.30
2019-05-30T20:59:34.352Z,2.63
2019-05-30T21:02:02.018Z,2.47
2019-05-30T21:04:29.368Z,2.63
2019-05-30T21:06:56.940Z,2.60
2019-05-30T21:09:29.140Z,2.70
2019-05-30T21:11:58.073Z,3.10
2019-05-30T21:14:29.011Z,2.87
2019-05-30T21:16:57.328Z,2.83
2019-05-30T21:19:25.355Z,2.43
2019-05-30T21:21:52.767Z,3.63
2019-05-30T21:24:20.167Z,3.43
2019-05-30T21:26:47.579Z,3.50
2019-05-30T21:29:15.010Z,3.13
2019-05-30T21:31:43.587Z,3.20
2019-05-30T21:34:11.354Z,3.10
2019-05-30T21:36:39.813Z,4.20
2019-05-30T21:39:07.602Z,3.47
2019-05-30T21:41:35.057Z,3.40
2019-05-30T21:44:02.571Z,3.70
2019-05-30T21:46:30.009Z,2.87
2019-05-30T21:48:57.363Z,3.00
2019-05-30T21:51:24.785Z,3.40
2019-05-30T21:53:52.246Z,2.97
2019-05-30T21:56:19.603Z,3.17
2019-05-30T21:58:48.215Z,2.60
2019-05-30T22:01:28.236Z,3.00
2019-05-30T22:03:55.703Z,3.50
2019-05-30T22:06:23.105Z,3.17
2019-05-30T22:08:51.528Z,3.00
2019-05-30T22:11:19.556Z,3.00
2019-05-30T22:13:47.695Z,2.93
2019-05-30T22:16:15.166Z,3.10
2019-05-30T22:18:44.025Z,3.10
2019-05-30T22:21:11.665Z,3.70
2019-05-30T22:23:39.020Z,3.40
2019-05-30T22:26:06.526Z,3.63
2019-05-30T22:28:33.947Z,3.97
2019-05-30T22:31:01.285Z,4.60
2019-05-30T22:33:28.734Z,4.13
2019-05-30T22:35:56.136Z,3.83
2019-05-30T22:38:23.608Z,4.17
2019-05-30T22:40:52.040Z,4.00
2019-05-30T22:43:25.155Z,3.80
2019-05-30T22:45:50.269Z,4.30
2019-05-30T22:48:17.817Z,4.40
2019-05-30T22:50:45.261Z,4.40
2019-05-30T22:53:12.667Z,4.40
2019-05-30T22:55:40.027Z,4.37
2019-05-30T22:58:07.446Z,4.40
2019-05-30T23:00:35.048Z,5.07
2019-05-30T23:03:02.425Z,5.53
2019-05-30T23:05:29.897Z,4.73
2019-05-30T23:07:57.285Z,4.80
2019-05-30T23:10:24.646Z,5.20
2019-05-30T23:12:52.097Z,5.43
2019-05-30T23:15:19.533Z,5.27
2019-05-30T23:17:48.237Z,5.17
2019-05-30T23:20:15.905Z,5.00
2019-05-30T23:22:43.979Z,5.23
2019-05-30T23:25:11.605Z,4.93
2019-05-30T23:27:38.974Z,5.20
2019-05-30T23:30:07.306Z,5.50
2019-05-30T23:32:34.749Z,5.57
2019-05-30T23:35:02.467Z,5.80
2019-05-30T23:37:29.876Z,5.57
2019-05-30T23:39:57.427Z,5.43
2019-05-30T23:42:24.861Z,5.47
2019-05-30T23:44:53.313Z,5.83
2019-05-30T23:47:20.999Z,5.80
2019-05-30T23:49:49.809Z,5.63
2019-05-30T23:52:17.291Z,5.53
2019-05-30T23:54:44.713Z,6.00
2019-05-30T23:57:12.161Z,5.00
2019-05-30T23:59:39.534Z,5.23
